createdAt,value
2023-04-17T00:00:38.123Z,85.43
2023-04-17T00:03:04.811Z,85.85
2023-04-17T00:05:31.942Z,85.93
2023-04-17T00:07:59.996Z,86.15
2023-04-17T00:10:26.646Z,85.43
2023-04-17T00:12:53.225Z,84.74
2023-04-17T00:15:19.711Z,85.23
2023-04-17T00:17:46.228Z,85.02
2023-04-17T00:20:13.383Z,85.21
2023-04-17T00:22:39.878Z,85.13
2023-04-17T00:25:06.983Z,85.21
2023-04-17T00:27:33.620Z,86.51
2023-04-17T00:30:00.242Z,86.69
2023-04-17T00:32:26.775Z,86.49
2023-04-17T00:34:55.593Z,86.34
2023-04-17T00:37:22.475Z,85.86
2023-04-17T00:39:48.960Z,85.70
2023-04-17T00:42:15.432Z,85.41
2023-04-17T00:44:41.910Z,85.85
2023-04-17T00:47:08.614Z,85.45
2023-04-17T00:49:35.373Z,85.61
2023-04-17T00:52:02.668Z,85.72
2023-04-17T00:54:29.436Z,86.05
2023-04-17T00:56:56.693Z,86.32
2023-04-17T00:59:24.033Z,86.46
2023-04-17T01:01:50.651Z,86.74
2023-04-17T01:04:17.216Z,86.37
2023-04-17T01:06:43.742Z,86.43
2023-04-17T01:09:11.452Z,86.54
2023-04-17T01:11:39.231Z,87.01
2023-04-17T01:14:05.816Z,86.22
2023-04-17T01:16:32.349Z,85.99
2023-04-17T01:18:59.522Z,86.18
2023-04-17T01:21:26.153Z,85.66
2023-04-17T01:23:53.335Z,85.41
2023-04-17T01:26:23.607Z,86.28
2023-04-17T01:28:59.779Z,86.88
2023-04-17T01:31:27.832Z,87.34
2023-04-17T01:33:54.431Z,87.35
2023-04-17T01:36:20.870Z,87.03
2023-04-17T01:38:47.435Z,86.86
2023-04-17T01:41:13.968Z,86.89
2023-04-17T01:43:42.871Z,86.80
2023-04-17T01:46:10.108Z,86.81
2023-04-17T01:48:36.968Z,86.97
2023-04-17T01:51:04.137Z,87.02
2023-04-17T01:53:31.356Z,87.07
2023-04-17T01:55:58.102Z,87.34
2023-04-17T01:58:24.617Z,87.35
2023-04-17T02:00:51.979Z,87.46
2023-04-17T02:03:19.319Z,87.35
2023-04-17T02:05:48.417Z,88.05
2023-04-17T02:08:15.132Z,87.85
2023-04-17T02:10:42.287Z,87.51
2023-04-17T02:13:10.087Z,88.07
2023-04-17T02:15:39.952Z,87.82
2023-04-17T02:18:06.831Z,88.03
2023-04-17T02:20:34.050Z,88.25
2023-04-17T02:23:01.263Z,87.61
2023-04-17T02:25:28.333Z,88.06
2023-04-17T02:27:56.223Z,87.48
2023-04-17T02:30:26.688Z,87.17
2023-04-17T02:32:54.076Z,87.35
2023-04-17T02:35:22.476Z,87.01
2023-04-17T02:37:49.054Z,86.91
2023-04-17T02:40:16.245Z,86.86
2023-04-17T02:42:42.747Z,87.48
2023-04-17T02:45:11.118Z,87.89
2023-04-17T02:47:38.079Z,87.83
2023-04-17T02:50:05.706Z,87.69
2023-04-17T02:52:33.980Z,87.30
2023-04-17T02:55:00.577Z,88.39
2023-04-17T02:57:27.091Z,88.13
2023-04-17T02:59:53.736Z,88.32
2023-04-17T03:02:23.363Z,88.71
2023-04-17T03:04:50.627Z,89.15
2023-04-17T03:07:20.682Z,89.32
2023-04-17T03:09:47.631Z,89.40
2023-04-17T03:12:14.792Z,89.19
2023-04-17T03:14:41.929Z,88.86
2023-04-17T03:17:10.102Z,88.33
2023-04-17T03:19:36.584Z,88.82
2023-04-17T03:22:03.328Z,88.65
2023-04-17T03:24:30.064Z,88.34
2023-04-17T03:26:56.579Z,88.13
2023-04-17T03:29:23.459Z,88.39
2023-04-17T03:31:50.014Z,88.10
2023-04-17T03:34:17.751Z,87.52
2023-04-17T03:36:44.504Z,87.51
2023-04-17T03:39:11.564Z,87.72
2023-04-17T03:41:38.731Z,88.02
2023-04-17T03:44:05.683Z,87.61
2023-04-17T03:46:32.266Z,87.88
2023-04-17T03:48:58.769Z,87.51
2023-04-17T03:51:27.294Z,87.70
2023-04-17T03:53:53.799Z,87.69
2023-04-17T03:56:20.552Z,87.88
2023-04-17T03:58:47.113Z,87.86
2023-04-17T04:01:14.695Z,88.34
2023-04-17T04:03:41.494Z,88.36
2023-04-17T04:06:08.271Z,87.75
2023-04-17T04:08:34.762Z,88.03
2023-04-17T04:11:02.179Z,87.49
2023-04-17T04:13:28.728Z,87.52
2023-04-17T04:15:55.234Z,87.67
2023-04-17T04:18:21.749Z,87.66
2023-04-17T04:20:48.367Z,86.99
2023-04-17T04:23:16.661Z,87.21
2023-04-17T04:25:43.530Z,87.59
2023-04-17T04:28:11.188Z,87.33
2023-04-17T04:30:38.728Z,87.06
2023-04-17T04:33:06.184Z,86.71
2023-04-17T04:35:32.831Z,87.13
2023-04-17T04:38:02.946Z,86.84
2023-04-17T04:40:30.798Z,86.36
2023-04-17T04:42:57.323Z,86.67
2023-04-17T04:45:23.987Z,86.63
2023-04-17T04:47:50.707Z,86.39
2023-04-17T04:50:17.656Z,86.27
2023-04-17T04:52:44.253Z,86.98
2023-04-17T04:55:12.699Z,86.38
2023-04-17T04:57:39.713Z,86.29
2023-04-17T05:00:08.044Z,86.12
2023-04-17T05:02:34.810Z,85.69
2023-04-17T05:05:01.800Z,86.00
2023-04-17T05:07:28.632Z,86.64
2023-04-17T05:09:55.559Z,86.22
2023-04-17T05:12:22.125Z,86.30
2023-04-17T05:14:49.217Z,86.23
2023-04-17T05:17:15.864Z,86.49
2023-04-17T05:19:42.525Z,86.70
2023-04-17T05:22:10.293Z,86.66
2023-04-17T05:24:36.872Z,86.30
2023-04-17T05:27:04.234Z,85.84
2023-04-17T05:29:32.718Z,85.49
2023-04-17T05:31:59.298Z,85.25
2023-04-17T05:34:26.322Z,85.60
2023-04-17T05:36:52.942Z,84.85
2023-04-17T05:39:19.516Z,85.15
2023-04-17T05:41:46.145Z,85.26
2023-04-17T05:44:12.838Z,85.02
2023-04-17T05:46:39.307Z,85.48
2023-04-17T05:49:05.774Z,85.54
2023-04-17T05:51:32.300Z,84.91
2023-04-17T05:53:58.907Z,85.54
2023-04-17T05:56:25.665Z,85.31
2023-04-17T05:58:52.154Z,84.92
2023-04-17T06:01:22.380Z,84.96
2023-04-17T06:03:49.258Z,84.05
2023-04-17T06:06:16.658Z,83.73
2023-04-17T06:08:43.139Z,82.85
2023-04-17T06:11:10.349Z,82.50
2023-04-17T06:13:37.007Z,82.72
2023-04-17T06:16:03.601Z,82.32
2023-04-17T06:18:30.239Z,82.44
2023-04-17T06:20:56.857Z,82.42
2023-04-17T06:23:23.351Z,82.31
2023-04-17T06:25:50.303Z,81.83
2023-04-17T06:28:17.112Z,81.09
2023-04-17T06:30:43.664Z,80.47
2023-04-17T06:33:11.260Z,80.13
2023-04-17T06:35:38.012Z,81.15
2023-04-17T06:38:04.577Z,81.17
2023-04-17T06:40:31.354Z,80.82
2023-04-17T06:42:57.958Z,79.77
2023-04-17T06:45:24.762Z,79.56
2023-04-17T06:47:51.398Z,79.43
2023-04-17T06:50:18.277Z,78.82
2023-04-17T06:52:44.965Z,78.75
2023-04-17T06:55:11.717Z,78.93
2023-04-17T06:57:39.260Z,79.27
2023-04-17T07:00:07.796Z,78.83
2023-04-17T07:02:34.581Z,74.89
2023-04-17T07:05:01.511Z,74.93
2023-04-17T07:07:30.636Z,74.45
2023-04-17T07:09:57.608Z,75.59
2023-04-17T07:12:24.114Z,75.10
2023-04-17T07:14:51.164Z,74.45
2023-04-17T07:17:18.163Z,74.41
2023-04-17T07:19:44.794Z,74.78
2023-04-17T07:22:11.952Z,74.31
2023-04-17T07:24:38.614Z,75.10
2023-04-17T07:27:06.649Z,73.23
2023-04-17T07:29:33.362Z,73.91
2023-04-17T07:31:59.922Z,73.52
2023-04-17T07:34:27.415Z,73.24
2023-04-17T07:36:54.011Z,73.40
2023-04-17T07:39:21.053Z,73.93
2023-04-17T07:41:48.617Z,72.74
2023-04-17T07:44:15.347Z,72.28
2023-04-17T07:46:42.142Z,71.47
2023-04-17T07:49:10.752Z,71.16
2023-04-17T07:51:41.115Z,73.60
2023-04-17T07:54:07.800Z,75.09
2023-04-17T07:56:34.688Z,74.64
2023-04-17T07:59:01.325Z,74.84
2023-04-17T08:01:28.118Z,74.67
2023-04-17T08:03:55.734Z,73.86
2023-04-17T08:06:22.572Z,72.24
2023-04-17T08:08:49.279Z,72.04
2023-04-17T08:11:15.909Z,72.93
2023-04-17T08:13:42.613Z,73.14
2023-04-17T08:16:11.076Z,73.77
2023-04-17T08:18:40.023Z,73.49
2023-04-17T08:21:11.332Z,74.42
2023-04-17T08:23:37.996Z,74.94
2023-04-17T08:26:04.973Z,74.85
2023-04-17T08:28:31.818Z,75.53
2023-04-17T08:30:58.635Z,75.58
2023-04-17T08:33:25.373Z,75.03
2023-04-17T08:35:52.100Z,74.55
2023-04-17T08:38:18.753Z,74.75
2023-04-17T08:40:51.958Z,73.68
2023-04-17T08:43:21.125Z,72.69
2023-04-17T08:45:53.900Z,72.62
2023-04-17T08:48:22.039Z,72.57
2023-04-17T08:50:50.204Z,72.95
2023-04-17T08:53:17.657Z,73.22
2023-04-17T08:55:45.450Z,72.96
2023-04-17T08:58:12.855Z,73.39
2023-04-17T09:00:41.080Z,73.23
2023-04-17T09:03:11.479Z,73.34
2023-04-17T09:05:42.107Z,73.33
2023-04-17T09:08:16.578Z,73.25
2023-04-17T09:10:48.774Z,71.94
2023-04-17T09:13:18.115Z,72.59
2023-04-17T09:15:46.233Z,72.40
2023-04-17T09:18:31.192Z,70.50
2023-04-17T09:21:00.008Z,69.95
2023-04-17T09:23:27.795Z,69.46
2023-04-17T09:26:14.347Z,69.52
2023-04-17T09:28:41.671Z,71.51
2023-04-17T09:31:20.098Z,71.36
2023-04-17T09:34:07.450Z,71.77
2023-04-17T09:36:36.839Z,72.63
2023-04-17T09:39:05.352Z,73.60
2023-04-17T09:41:39.476Z,73.46
2023-04-17T09:44:06.227Z,73.23
2023-04-17T09:46:40.681Z,71.80
2023-04-17T09:49:30.329Z,71.56
2023-04-17T09:51:57.849Z,70.95
2023-04-17T09:54:25.187Z,70.73
2023-04-17T09:56:55.958Z,70.89
2023-04-17T09:59:24.905Z,70.88
2023-04-17T10:01:54.323Z,68.94
2023-04-17T10:04:21.895Z,68.05
2023-04-17T10:06:49.820Z,67.02
2023-04-17T10:09:16.584Z,66.27
2023-04-17T10:11:45.085Z,66.33
2023-04-17T10:14:16.097Z,65.25
2023-04-17T10:16:43.754Z,66.20
2023-04-17T10:19:31.046Z,67.17
2023-04-17T10:22:15.710Z,67.29
2023-04-17T10:24:43.258Z,67.65
2023-04-17T10:27:32.814Z,68.60
2023-04-17T10:30:01.727Z,68.67
2023-04-17T10:32:29.255Z,68.76
2023-04-17T10:35:04.955Z,68.12
2023-04-17T10:38:04.791Z,67.55
2023-04-17T10:40:33.719Z,67.73
2023-04-17T10:43:04.766Z,66.31
2023-04-17T10:46:06.179Z,66.96
2023-04-17T10:48:42.904Z,65.15
2023-04-17T10:51:21.665Z,65.41
2023-04-17T10:53:49.943Z,65.15
2023-04-17T10:56:23.920Z,64.77
2023-04-17T10:58:57.765Z,65.46
2023-04-17T11:01:46.012Z,64.76
2023-04-17T11:04:19.615Z,64.43
2023-04-17T11:06:47.611Z,64.68
2023-04-17T11:09:15.211Z,63.45
2023-04-17T11:11:45.024Z,61.84
2023-04-17T11:14:21.249Z,62.15
2023-04-17T11:16:49.388Z,61.88
2023-04-17T11:19:21.505Z,61.88
2023-04-17T11:21:50.280Z,62.10
2023-04-17T11:24:37.285Z,61.87
2023-04-17T11:27:05.223Z,62.15
2023-04-17T11:29:31.795Z,61.14
2023-04-17T11:32:00.702Z,61.56
2023-04-17T11:34:27.596Z,62.06
2023-04-17T11:36:56.722Z,61.48
2023-04-17T11:39:25.031Z,61.16
2023-04-17T11:41:52.579Z,61.65
2023-04-17T11:44:22.752Z,61.33
2023-04-17T11:46:53.434Z,60.72
2023-04-17T11:49:30.596Z,60.65
2023-04-17T11:51:59.838Z,59.73
2023-04-17T11:54:27.938Z,61.41
2023-04-17T11:57:02.320Z,60.86
2023-04-17T11:59:34.293Z,59.89
2023-04-17T12:02:02.133Z,59.51
2023-04-17T12:04:31.093Z,59.61
2023-04-17T12:06:59.672Z,59.50
2023-04-17T12:09:31.573Z,58.42
2023-04-17T12:11:59.120Z,59.59
2023-04-17T12:14:26.498Z,59.21
2023-04-17T12:16:53.669Z,58.49
2023-04-17T12:19:20.310Z,59.33
2023-04-17T12:21:49.832Z,60.90
2023-04-17T12:24:19.690Z,59.70
2023-04-17T12:26:47.497Z,59.97
2023-04-17T12:29:15.211Z,61.00
2023-04-17T12:31:41.912Z,61.06
2023-04-17T12:34:08.614Z,61.43
2023-04-17T12:36:35.488Z,60.75
2023-04-17T12:39:02.626Z,62.33
2023-04-17T12:41:30.175Z,60.78
2023-04-17T12:44:00.114Z,61.37
2023-04-17T12:46:26.979Z,61.37
2023-04-17T12:48:58.543Z,61.31
2023-04-17T12:51:28.104Z,61.29
2023-04-17T12:53:55.597Z,61.81
2023-04-17T12:56:22.486Z,60.89
2023-04-17T12:58:49.054Z,61.36
2023-04-17T13:01:16.220Z,61.50
2023-04-17T13:03:43.202Z,61.29
2023-04-17T13:06:10.318Z,62.13
2023-04-17T13:08:36.941Z,62.20
2023-04-17T13:11:06.549Z,61.88
2023-04-17T13:13:33.157Z,61.85
2023-04-17T13:16:00.136Z,61.52
2023-04-17T13:18:26.740Z,61.31
2023-04-17T13:20:53.381Z,60.94
2023-04-17T13:23:20.600Z,60.50
2023-04-17T13:25:48.478Z,60.78
2023-04-17T13:28:15.161Z,60.65
2023-04-17T13:30:41.817Z,60.15
2023-04-17T13:33:08.377Z,59.70
2023-04-17T13:35:35.159Z,59.52
2023-04-17T13:38:03.024Z,59.85
2023-04-17T13:40:30.397Z,59.51
2023-04-17T13:42:57.076Z,59.14
2023-04-17T13:45:23.825Z,58.38
2023-04-17T13:47:50.485Z,58.66
2023-04-17T13:50:17.149Z,58.75
2023-04-17T13:52:43.673Z,59.36
2023-04-17T13:55:14.415Z,59.28
2023-04-17T13:57:41.035Z,58.64
2023-04-17T14:00:08.299Z,59.56
2023-04-17T14:02:35.226Z,58.91
2023-04-17T14:05:02.358Z,57.84
2023-04-17T14:07:30.006Z,58.06
2023-04-17T14:09:56.706Z,58.53
2023-04-17T14:12:23.716Z,57.78
2023-04-17T14:14:50.244Z,59.05
2023-04-17T14:17:16.870Z,57.98
2023-04-17T14:19:43.327Z,57.05
2023-04-17T14:22:10.447Z,57.15
2023-04-17T14:24:37.069Z,56.05
2023-04-17T14:27:03.955Z,54.85
2023-04-17T14:29:30.840Z,55.03
2023-04-17T14:31:58.072Z,54.22
2023-04-17T14:34:24.909Z,54.97
2023-04-17T14:36:51.449Z,55.28
2023-04-17T14:39:19.640Z,54.56
2023-04-17T14:41:46.328Z,54.93
2023-04-17T14:44:13.244Z,54.86
2023-04-17T14:46:40.492Z,55.04
2023-04-17T14:49:07.294Z,56.01
2023-04-17T14:51:33.840Z,56.98
2023-04-17T14:54:00.702Z,57.14
2023-04-17T14:56:27.373Z,57.41
2023-04-17T14:58:53.910Z,57.94
2023-04-17T15:01:20.805Z,58.53
2023-04-17T15:03:48.891Z,58.45
2023-04-17T15:06:16.368Z,57.84
2023-04-17T15:08:43.136Z,58.98
2023-04-17T15:11:10.100Z,58.99
2023-04-17T15:13:36.805Z,59.27
2023-04-17T15:16:03.700Z,59.23
2023-04-17T15:18:30.720Z,59.21
2023-04-17T15:20:57.398Z,58.81
2023-04-17T15:23:26.446Z,58.64
2023-04-17T15:25:57.693Z,58.90
2023-04-17T15:28:25.242Z,59.00
2023-04-17T15:30:51.804Z,58.92
2023-04-17T15:33:18.435Z,58.54
2023-04-17T15:35:45.181Z,58.80
2023-04-17T15:38:11.969Z,58.99
2023-04-17T15:40:38.732Z,59.27
2023-04-17T15:43:05.297Z,59.59
2023-04-17T15:45:31.987Z,59.14
2023-04-17T15:47:58.911Z,59.35
2023-04-17T15:50:25.472Z,59.63
2023-04-17T15:52:52.074Z,60.78
2023-04-17T15:55:18.831Z,59.72
2023-04-17T15:57:45.595Z,59.51
2023-04-17T16:00:12.836Z,59.29
2023-04-17T16:02:39.738Z,59.50
2023-04-17T16:05:06.845Z,59.83
2023-04-17T16:07:33.339Z,60.09
2023-04-17T16:10:00.573Z,61.52
2023-04-17T16:12:28.385Z,59.45
2023-04-17T16:14:54.934Z,59.81
2023-04-17T16:17:21.893Z,60.32
2023-04-17T16:19:50.467Z,60.37
2023-04-17T16:22:18.449Z,60.12
2023-04-17T16:24:44.942Z,60.40
2023-04-17T16:27:11.891Z,60.91
2023-04-17T16:29:38.400Z,60.84
2023-04-17T16:32:05.005Z,61.00
2023-04-17T16:34:31.849Z,61.02
2023-04-17T16:36:58.373Z,61.51
2023-04-17T16:39:25.000Z,61.94
2023-04-17T16:41:52.909Z,61.89
2023-04-17T16:44:19.641Z,62.28
2023-04-17T16:47:05.538Z,62.75
2023-04-17T16:49:32.811Z,62.71
2023-04-17T16:51:59.746Z,63.14
2023-04-17T16:54:26.267Z,63.38
2023-04-17T16:56:52.980Z,63.24
2023-04-17T16:59:19.701Z,63.31
2023-04-17T17:01:47.276Z,62.98
2023-04-17T17:04:13.926Z,63.33
2023-04-17T17:06:40.553Z,62.69
2023-04-17T17:09:07.174Z,62.69
2023-04-17T17:11:33.966Z,62.76
2023-04-17T17:14:01.017Z,63.34
2023-04-17T17:16:27.539Z,63.61
2023-04-17T17:18:54.394Z,63.70
2023-04-17T17:21:21.317Z,63.84
2023-04-17T17:23:49.191Z,63.80
2023-04-17T17:26:17.521Z,64.01
2023-04-17T17:28:51.046Z,64.09
2023-04-17T17:31:18.375Z,64.20
2023-04-17T17:33:50.016Z,63.96
2023-04-17T17:36:17.244Z,64.07
2023-04-17T17:38:44.259Z,64.08
2023-04-17T17:41:11.704Z,64.62
2023-04-17T17:43:38.296Z,64.57
2023-04-17T17:46:05.282Z,64.75
2023-04-17T17:48:31.987Z,65.00
2023-04-17T17:50:58.740Z,64.63
2023-04-17T17:53:26.979Z,64.94
2023-04-17T17:55:55.658Z,65.16
2023-04-17T17:58:22.869Z,65.89
2023-04-17T18:00:50.460Z,65.89
2023-04-17T18:03:17.471Z,66.19
2023-04-17T18:05:46.519Z,66.25
2023-04-17T18:08:13.682Z,66.13
2023-04-17T18:10:40.411Z,66.05
2023-04-17T18:13:07.131Z,66.44
2023-04-17T18:15:34.082Z,65.78
2023-04-17T18:18:00.794Z,65.95
2023-04-17T18:20:27.552Z,66.10
2023-04-17T18:22:54.240Z,66.47
2023-04-17T18:25:21.169Z,66.77
2023-04-17T18:27:47.907Z,66.99
2023-04-17T18:30:15.131Z,67.55
2023-04-17T18:32:41.650Z,67.20
2023-04-17T18:35:09.288Z,67.54
2023-04-17T18:37:36.507Z,67.51
2023-04-17T18:40:03.294Z,67.91
2023-04-17T18:42:30.023Z,67.83
2023-04-17T18:44:56.574Z,68.26
2023-04-17T18:47:23.137Z,68.11
2023-04-17T18:49:52.399Z,68.38
2023-04-17T18:52:19.393Z,68.37
2023-04-17T18:54:45.971Z,68.50
2023-04-17T18:57:12.426Z,68.71
2023-04-17T18:59:40.450Z,69.02
2023-04-17T19:02:07.971Z,69.08
2023-04-17T19:04:34.633Z,68.85
2023-04-17T19:07:02.705Z,69.73
2023-04-17T19:09:29.336Z,68.64
2023-04-17T19:11:57.520Z,69.33
2023-04-17T19:14:24.645Z,69.71
2023-04-17T19:16:51.286Z,69.44
2023-04-17T19:19:17.939Z,69.83
2023-04-17T19:21:44.471Z,70.01
2023-04-17T19:24:11.395Z,70.24
2023-04-17T19:26:38.141Z,70.67
2023-04-17T19:29:05.105Z,70.26
2023-04-17T19:31:32.953Z,70.14
2023-04-17T19:34:00.493Z,70.80
2023-04-17T19:36:28.120Z,70.74
2023-04-17T19:38:55.748Z,70.79
2023-04-17T19:41:22.396Z,70.20
2023-04-17T19:43:50.820Z,71.01
2023-04-17T19:46:18.173Z,70.81
2023-04-17T19:48:46.017Z,70.74
2023-04-17T19:51:13.427Z,71.18
2023-04-17T19:53:41.332Z,71.19
2023-04-17T19:56:10.573Z,71.04
2023-04-17T19:58:37.782Z,71.37
2023-04-17T20:01:04.612Z,71.13
2023-04-17T20:03:32.434Z,71.46
2023-04-17T20:05:59.842Z,71.81
2023-04-17T20:08:26.480Z,71.83
2023-04-17T20:10:53.025Z,72.04
2023-04-17T20:13:19.719Z,72.13
2023-04-17T20:15:46.438Z,71.99
2023-04-17T20:18:13.375Z,72.06
2023-04-17T20:20:40.152Z,72.28
2023-04-17T20:23:06.680Z,72.13
2023-04-17T20:25:33.169Z,72.51
2023-04-17T20:28:02.768Z,73.30
2023-04-17T20:30:29.841Z,73.51
2023-04-17T20:32:56.848Z,73.58
2023-04-17T20:35:26.455Z,73.68
2023-04-17T20:37:53.177Z,74.35
2023-04-17T20:40:20.021Z,73.39
2023-04-17T20:42:47.497Z,73.63
2023-04-17T20:45:14.374Z,73.78
2023-04-17T20:47:55.960Z,73.86
2023-04-17T20:50:24.227Z,74.34
2023-04-17T20:52:51.163Z,74.22
2023-04-17T20:55:20.865Z,74.34
2023-04-17T20:57:47.829Z,74.67
2023-04-17T21:00:14.603Z,74.51
2023-04-17T21:02:41.621Z,74.53
2023-04-17T21:05:10.486Z,74.66
2023-04-17T21:07:37.088Z,74.13
2023-04-17T21:10:03.966Z,74.17
2023-04-17T21:12:32.898Z,74.27
2023-04-17T21:14:59.751Z,74.91
2023-04-17T21:17:26.488Z,74.61
2023-04-17T21:19:55.724Z,75.21
2023-04-17T21:22:22.622Z,74.67
2023-04-17T21:24:49.290Z,74.90
2023-04-17T21:27:15.935Z,74.63
2023-04-17T21:29:42.742Z,74.56
2023-04-17T21:32:10.540Z,74.41
2023-04-17T21:34:37.183Z,74.29
2023-04-17T21:37:05.058Z,74.60
2023-04-17T21:39:33.296Z,75.15
2023-04-17T21:42:00.286Z,75.32
2023-04-17T21:44:26.794Z,75.32
2023-04-17T21:46:53.349Z,75.74
2023-04-17T21:49:20.645Z,75.94
2023-04-17T21:51:47.206Z,76.00
2023-04-17T21:54:14.134Z,76.29
2023-04-17T21:56:41.189Z,76.49
2023-04-17T21:59:07.876Z,76.81
2023-04-17T22:01:34.501Z,78.04
2023-04-17T22:04:01.725Z,77.71
2023-04-17T22:06:28.259Z,78.50
2023-04-17T22:08:54.764Z,78.94
2023-04-17T22:11:21.326Z,79.50
2023-04-17T22:13:47.796Z,80.55
2023-04-17T22:16:14.386Z,80.66
2023-04-17T22:18:40.907Z,81.35
2023-04-17T22:21:07.564Z,82.16
2023-04-17T22:23:34.041Z,82.61
2023-04-17T22:26:00.772Z,83.58
2023-04-17T22:28:31.251Z,83.15
2023-04-17T22:30:58.918Z,83.07
2023-04-17T22:33:26.126Z,82.86
2023-04-17T22:35:52.963Z,84.16
2023-04-17T22:38:20.912Z,84.58
2023-04-17T22:40:47.946Z,85.34
2023-04-17T22:43:14.642Z,86.16
2023-04-17T22:45:41.258Z,87.10
2023-04-17T22:48:07.790Z,87.73
2023-04-17T22:50:34.421Z,88.40
2023-04-17T22:53:00.871Z,88.78
2023-04-17T22:55:27.663Z,89.01
2023-04-17T22:57:54.352Z,89.20
2023-04-17T23:00:21.096Z,89.33
2023-04-17T23:02:47.686Z,89.69
2023-04-17T23:05:14.611Z,90.13
2023-04-17T23:07:41.261Z,90.15
2023-04-17T23:10:08.103Z,90.64
2023-04-17T23:12:34.709Z,90.87
2023-04-17T23:15:01.326Z,90.38
2023-04-17T23:17:27.854Z,90.33
2023-04-17T23:19:54.569Z,90.41
2023-04-17T23:22:21.046Z,90.72
2023-04-17T23:24:47.496Z,90.92
2023-04-17T23:27:13.983Z,91.08
2023-04-17T23:29:40.436Z,91.47
2023-04-17T23:32:07.435Z,91.38
2023-04-17T23:34:34.080Z,91.24
2023-04-17T23:37:02.586Z,90.73
2023-04-17T23:39:29.323Z,91.03
2023-04-17T23:41:55.850Z,91.43
2023-04-17T23:44:22.383Z,91.43
2023-04-17T23:46:48.887Z,91.35
2023-04-17T23:49:15.374Z,91.16
2023-04-17T23:51:41.837Z,91.39
2023-04-17T23:54:08.301Z,91.11
2023-04-17T23:56:34.831Z,91.19
2023-04-17T23:59:01.410Z,91.17
